sensor_id;sensor_type;location;lat;lon;timestamp;P1;durP1;ratioP1;P2;durP2;ratioP2
2656;SDS011;1338;48.176;11.792;2023-01-28T00:02:07;21.10;;;14.37;;
2656;SDS011;1338;48.176;11.792;2023-01-28T00:04:40;21.43;;;14.63;;
2656;SDS011;1338;48.176;11.792;2023-01-28T00:07:08;22.60;;;15.40;;
2656;SDS011;1338;48.176;11.792;2023-01-28T00:09:37;21.07;;;14.80;;
2656;SDS011;1338;48.176;11.792;2023-01-28T00:12:05;20.00;;;14.00;;
2656;SDS011;1338;48.176;11.792;2023-01-28T00:14:34;19.47;;;13.80;;
2656;SDS011;1338;48.176;11.792;2023-01-28T00:17:03;19.03;;;14.23;;
2656;SDS011;1338;48.176;11.792;2023-01-28T00:19:32;17.47;;;13.70;;
2656;SDS011;1338;48.176;11.792;2023-01-28T00:22:01;20.97;;;15.47;;
2656;SDS011;1338;48.176;11.792;2023-01-28T00:24:30;17.83;;;13.50;;
2656;SDS011;1338;48.176;11.792;2023-01-28T00:26:58;18.50;;;13.40;;
2656;SDS011;1338;48.176;11.792;2023-01-28T00:29:27;17.47;;;11.90;;
2656;SDS011;1338;48.176;11.792;2023-01-28T00:31:55;22.37;;;15.27;;
2656;SDS011;1338;48.176;11.792;2023-01-28T00:34:23;23.17;;;15.40;;
2656;SDS011;1338;48.176;11.792;2023-01-28T00:36:51;19.50;;;13.93;;
2656;SDS011;1338;48.176;11.792;2023-01-28T00:39:24;19.57;;;13.27;;
2656;SDS011;1338;48.176;11.792;2023-01-28T00:41:53;21.07;;;13.10;;
2656;SDS011;1338;48.176;11.792;2023-01-28T00:44:23;21.70;;;14.53;;
2656;SDS011;1338;48.176;11.792;2023-01-28T00:46:51;20.80;;;15.40;;
2656;SDS011;1338;48.176;11.792;2023-01-28T00:49:20;19.23;;;13.60;;
2656;SDS011;1338;48.176;11.792;2023-01-28T00:51:49;24.27;;;14.23;;
2656;SDS011;1338;48.176;11.792;2023-01-28T00:54:17;23.20;;;14.83;;
2656;SDS011;1338;48.176;11.792;2023-01-28T00:56:47;19.30;;;14.33;;
2656;SDS011;1338;48.176;11.792;2023-01-28T00:59:16;20.80;;;14.27;;
2656;SDS011;1338;48.176;11.792;2023-01-28T01:01:45;20.40;;;13.40;;
2656;SDS011;1338;48.176;11.792;2023-01-28T01:04:14;23.30;;;14.67;;
2656;SDS011;1338;48.176;11.792;2023-01-28T01:06:52;21.77;;;14.40;;
2656;SDS011;1338;48.176;11.792;2023-01-28T01:09:20;22.67;;;14.97;;
2656;SDS011;1338;48.176;11.792;2023-01-28T01:11:50;20.70;;;14.30;;
2656;SDS011;1338;48.176;11.792;2023-01-28T01:14:18;19.37;;;12.87;;
2656;SDS011;1338;48.176;11.792;2023-01-28T01:16:46;20.80;;;13.77;;
2656;SDS011;1338;48.176;11.792;2023-01-28T01:19:17;20.43;;;14.60;;
2656;SDS011;1338;48.176;11.792;2023-01-28T01:21:46;19.70;;;13.70;;
2656;SDS011;1338;48.176;11.792;2023-01-28T01:24:16;19.80;;;14.33;;
2656;SDS011;1338;48.176;11.792;2023-01-28T01:26:44;19.93;;;14.60;;
2656;SDS011;1338;48.176;11.792;2023-01-28T01:29:14;22.10;;;15.67;;
2656;SDS011;1338;48.176;11.792;2023-01-28T01:31:42;20.50;;;14.63;;
2656;SDS011;1338;48.176;11.792;2023-01-28T01:34:11;20.57;;;14.33;;
2656;SDS011;1338;48.176;11.792;2023-01-28T01:36:40;21.60;;;15.50;;
2656;SDS011;1338;48.176;11.792;2023-01-28T01:39:11;18.23;;;13.67;;
2656;SDS011;1338;48.176;11.792;2023-01-28T01:41:39;21.67;;;14.80;;
2656;SDS011;1338;48.176;11.792;2023-01-28T01:47:10;21.67;;;14.87;;
2656;SDS011;1338;48.176;11.792;2023-01-28T01:49:39;21.93;;;13.97;;
2656;SDS011;1338;48.176;11.792;2023-01-28T01:52:09;21.17;;;15.27;;
2656;SDS011;1338;48.176;11.792;2023-01-28T01:54:42;21.77;;;14.40;;
2656;SDS011;1338;48.176;11.792;2023-01-28T01:57:14;21.53;;;15.00;;
2656;SDS011;1338;48.176;11.792;2023-01-28T01:59:46;21.87;;;15.97;;
2656;SDS011;1338;48.176;11.792;2023-01-28T02:02:16;18.10;;;12.37;;
2656;SDS011;1338;48.176;11.792;2023-01-28T02:04:44;22.83;;;14.70;;
2656;SDS011;1338;48.176;11.792;2023-01-28T02:07:16;23.97;;;15.23;;
2656;SDS011;1338;48.176;11.792;2023-01-28T02:09:46;19.93;;;16.00;;
2656;SDS011;1338;48.176;11.792;2023-01-28T02:12:17;22.47;;;15.27;;
2656;SDS011;1338;48.176;11.792;2023-01-28T02:14:50;27.97;;;16.00;;
2656;SDS011;1338;48.176;11.792;2023-01-28T02:17:22;22.90;;;14.60;;
2656;SDS011;1338;48.176;11.792;2023-01-28T02:19:53;22.50;;;15.30;;
2656;SDS011;1338;48.176;11.792;2023-01-28T02:22:50;23.40;;;15.70;;
2656;SDS011;1338;48.176;11.792;2023-01-28T02:25:53;21.80;;;14.13;;
2656;SDS011;1338;48.176;11.792;2023-01-28T02:28:43;20.60;;;14.10;;
2656;SDS011;1338;48.176;11.792;2023-01-28T02:31:18;26.03;;;15.03;;
2656;SDS011;1338;48.176;11.792;2023-01-28T02:33:51;24.73;;;16.50;;
2656;SDS011;1338;48.176;11.792;2023-01-28T02:36:25;19.10;;;13.20;;
2656;SDS011;1338;48.176;11.792;2023-01-28T02:39:00;21.90;;;14.53;;
2656;SDS011;1338;48.176;11.792;2023-01-28T02:41:38;20.43;;;14.07;;
2656;SDS011;1338;48.176;11.792;2023-01-28T02:44:14;23.33;;;16.23;;
2656;SDS011;1338;48.176;11.792;2023-01-28T02:46:42;22.40;;;14.93;;
2656;SDS011;1338;48.176;11.792;2023-01-28T02:49:28;23.90;;;15.47;;
2656;SDS011;1338;48.176;11.792;2023-01-28T02:52:08;23.80;;;15.90;;
2656;SDS011;1338;48.176;11.792;2023-01-28T02:55:20;20.67;;;15.10;;
2656;SDS011;1338;48.176;11.792;2023-01-28T02:57:59;20.87;;;14.47;;
2656;SDS011;1338;48.176;11.792;2023-01-28T03:00:38;23.27;;;15.00;;
2656;SDS011;1338;48.176;11.792;2023-01-28T03:03:18;23.73;;;14.30;;
2656;SDS011;1338;48.176;11.792;2023-01-28T03:05:50;21.73;;;13.43;;
2656;SDS011;1338;48.176;11.792;2023-01-28T03:08:32;22.97;;;16.40;;
2656;SDS011;1338;48.176;11.792;2023-01-28T03:11:22;20.67;;;13.03;;
2656;SDS011;1338;48.176;11.792;2023-01-28T03:14:08;22.17;;;14.70;;
2656;SDS011;1338;48.176;11.792;2023-01-28T03:16:56;24.40;;;16.37;;
2656;SDS011;1338;48.176;11.792;2023-01-28T03:19:45;24.57;;;15.30;;
2656;SDS011;1338;48.176;11.792;2023-01-28T03:22:32;21.77;;;14.43;;
2656;SDS011;1338;48.176;11.792;2023-01-28T03:25:21;26.53;;;16.80;;
2656;SDS011;1338;48.176;11.792;2023-01-28T03:28:11;20.10;;;14.93;;
2656;SDS011;1338;48.176;11.792;2023-01-28T03:31:03;18.93;;;13.57;;
2656;SDS011;1338;48.176;11.792;2023-01-28T03:33:55;19.20;;;14.33;;
2656;SDS011;1338;48.176;11.792;2023-01-28T03:36:43;23.70;;;14.57;;
2656;SDS011;1338;48.176;11.792;2023-01-28T03:39:46;21.53;;;15.00;;
2656;SDS011;1338;48.176;11.792;2023-01-28T03:42:14;23.00;;;15.17;;
2656;SDS011;1338;48.176;11.792;2023-01-28T03:45:03;18.53;;;13.30;;
2656;SDS011;1338;48.176;11.792;2023-01-28T03:47:33;23.87;;;14.40;;
2656;SDS011;1338;48.176;11.792;2023-01-28T03:50:05;20.70;;;14.07;;
2656;SDS011;1338;48.176;11.792;2023-01-28T03:52:54;22.17;;;14.60;;
2656;SDS011;1338;48.176;11.792;2023-01-28T03:55:46;18.00;;;12.33;;
2656;SDS011;1338;48.176;11.792;2023-01-28T03:58:15;23.10;;;15.80;;
2656;SDS011;1338;48.176;11.792;2023-01-28T04:00:44;23.53;;;14.70;;
2656;SDS011;1338;48.176;11.792;2023-01-28T04:03:14;24.10;;;14.47;;
2656;SDS011;1338;48.176;11.792;2023-01-28T04:05:58;24.10;;;14.93;;
2656;SDS011;1338;48.176;11.792;2023-01-28T04:08:46;20.20;;;12.57;;
2656;SDS011;1338;48.176;11.792;2023-01-28T04:11:45;20.00;;;13.73;;
2656;SDS011;1338;48.176;11.792;2023-01-28T04:14:19;22.30;;;14.03;;
2656;SDS011;1338;48.176;11.792;2023-01-28T04:16:51;21.20;;;14.67;;
2656;SDS011;1338;48.176;11.792;2023-01-28T04:19:23;22.33;;;15.03;;
2656;SDS011;1338;48.176;11.792;2023-01-28T04:21:54;22.00;;;14.20;;
2656;SDS011;1338;48.176;11.792;2023-01-28T04:24:24;16.07;;;11.97;;
2656;SDS011;1338;48.176;11.792;2023-01-28T04:26:52;23.23;;;14.20;;
2656;SDS011;1338;48.176;11.792;2023-01-28T04:29:23;20.60;;;12.93;;
2656;SDS011;1338;48.176;11.792;2023-01-28T04:31:53;18.60;;;12.00;;
2656;SDS011;1338;48.176;11.792;2023-01-28T04:34:34;18.60;;;13.90;;
2656;SDS011;1338;48.176;11.792;2023-01-28T04:37:39;20.40;;;13.00;;
2656;SDS011;1338;48.176;11.792;2023-01-28T04:40:33;20.70;;;15.40;;
2656;SDS011;1338;48.176;11.792;2023-01-28T04:43:10;20.20;;;14.30;;
2656;SDS011;1338;48.176;11.792;2023-01-28T04:45:50;20.63;;;13.87;;
2656;SDS011;1338;48.176;11.792;2023-01-28T04:48:38;21.80;;;14.73;;
2656;SDS011;1338;48.176;11.792;2023-01-28T04:51:12;21.77;;;14.20;;
2656;SDS011;1338;48.176;11.792;2023-01-28T04:54:00;19.70;;;12.53;;
2656;SDS011;1338;48.176;11.792;2023-01-28T04:56:30;22.50;;;14.00;;
2656;SDS011;1338;48.176;11.792;2023-01-28T04:58:59;18.37;;;13.87;;
2656;SDS011;1338;48.176;11.792;2023-01-28T05:01:30;22.20;;;14.20;;
2656;SDS011;1338;48.176;11.792;2023-01-28T05:03:59;22.03;;;14.20;;
2656;SDS011;1338;48.176;11.792;2023-01-28T05:06:33;22.00;;;13.83;;
2656;SDS011;1338;48.176;11.792;2023-01-28T05:09:08;20.87;;;14.03;;
2656;SDS011;1338;48.176;11.792;2023-01-28T05:11:36;23.20;;;14.30;;
2656;SDS011;1338;48.176;11.792;2023-01-28T05:14:06;19.50;;;14.53;;
2656;SDS011;1338;48.176;11.792;2023-01-28T05:16:41;20.07;;;14.43;;
2656;SDS011;1338;48.176;11.792;2023-01-28T05:19:10;19.73;;;12.40;;
2656;SDS011;1338;48.176;11.792;2023-01-28T05:21:41;24.33;;;14.73;;
2656;SDS011;1338;48.176;11.792;2023-01-28T05:24:21;19.73;;;13.87;;
2656;SDS011;1338;48.176;11.792;2023-01-28T05:26:49;18.47;;;12.60;;
2656;SDS011;1338;48.176;11.792;2023-01-28T05:29:17;19.27;;;13.33;;
2656;SDS011;1338;48.176;11.792;2023-01-28T05:31:46;20.97;;;13.40;;
2656;SDS011;1338;48.176;11.792;2023-01-28T05:34:15;22.10;;;14.00;;
2656;SDS011;1338;48.176;11.792;2023-01-28T05:36:43;20.20;;;13.60;;
2656;SDS011;1338;48.176;11.792;2023-01-28T05:39:26;18.77;;;15.17;;
2656;SDS011;1338;48.176;11.792;2023-01-28T05:41:55;20.40;;;13.50;;
2656;SDS011;1338;48.176;11.792;2023-01-28T05:44:24;19.53;;;13.17;;
2656;SDS011;1338;48.176;11.792;2023-01-28T05:46:57;20.23;;;13.60;;
2656;SDS011;1338;48.176;11.792;2023-01-28T05:49:46;21.53;;;13.73;;
2656;SDS011;1338;48.176;11.792;2023-01-28T05:52:31;21.07;;;13.53;;
2656;SDS011;1338;48.176;11.792;2023-01-28T05:55:01;20.53;;;13.93;;
2656;SDS011;1338;48.176;11.792;2023-01-28T05:57:30;20.57;;;14.77;;
2656;SDS011;1338;48.176;11.792;2023-01-28T06:00:00;24.27;;;14.90;;
2656;SDS011;1338;48.176;11.792;2023-01-28T06:02:39;20.27;;;14.47;;
2656;SDS011;1338;48.176;11.792;2023-01-28T06:05:12;23.13;;;13.87;;
2656;SDS011;1338;48.176;11.792;2023-01-28T06:07:43;20.90;;;15.03;;
2656;SDS011;1338;48.176;11.792;2023-01-28T06:10:13;18.73;;;14.27;;
2656;SDS011;1338;48.176;11.792;2023-01-28T06:12:43;20.37;;;14.60;;
2656;SDS011;1338;48.176;11.792;2023-01-28T06:15:35;18.93;;;12.60;;
2656;SDS011;1338;48.176;11.792;2023-01-28T06:18:13;19.07;;;12.83;;
2656;SDS011;1338;48.176;11.792;2023-01-28T06:20:41;23.10;;;15.03;;
2656;SDS011;1338;48.176;11.792;2023-01-28T06:23:11;22.37;;;15.20;;
2656;SDS011;1338;48.176;11.792;2023-01-28T06:25:40;19.90;;;14.27;;
2656;SDS011;1338;48.176;11.792;2023-01-28T06:28:11;28.13;;;15.80;;
2656;SDS011;1338;48.176;11.792;2023-01-28T06:30:39;26.00;;;16.10;;
2656;SDS011;1338;48.176;11.792;2023-01-28T06:33:07;22.20;;;13.43;;
2656;SDS011;1338;48.176;11.792;2023-01-28T06:35:36;24.50;;;14.53;;
2656;SDS011;1338;48.176;11.792;2023-01-28T06:38:04;21.90;;;14.37;;
2656;SDS011;1338;48.176;11.792;2023-01-28T06:40:33;20.90;;;14.43;;
2656;SDS011;1338;48.176;11.792;2023-01-28T06:43:02;22.77;;;14.67;;
2656;SDS011;1338;48.176;11.792;2023-01-28T06:45:31;17.73;;;12.67;;
2656;SDS011;1338;48.176;11.792;2023-01-28T06:48:00;20.80;;;14.27;;
2656;SDS011;1338;48.176;11.792;2023-01-28T06:50:29;20.13;;;13.50;;
2656;SDS011;1338;48.176;11.792;2023-01-28T06:52:58;18.00;;;13.30;;
2656;SDS011;1338;48.176;11.792;2023-01-28T06:55:26;23.60;;;14.50;;
2656;SDS011;1338;48.176;11.792;2023-01-28T06:57:54;20.20;;;14.03;;
2656;SDS011;1338;48.176;11.792;2023-01-28T07:00:24;23.33;;;14.47;;
2656;SDS011;1338;48.176;11.792;2023-01-28T07:02:54;20.37;;;15.00;;
2656;SDS011;1338;48.176;11.792;2023-01-28T07:05:23;21.80;;;14.60;;
2656;SDS011;1338;48.176;11.792;2023-01-28T07:07:52;23.40;;;14.87;;
2656;SDS011;1338;48.176;11.792;2023-01-28T07:10:21;24.90;;;15.07;;
2656;SDS011;1338;48.176;11.792;2023-01-28T07:12:49;20.97;;;14.33;;
2656;SDS011;1338;48.176;11.792;2023-01-28T07:15:17;19.10;;;13.47;;
2656;SDS011;1338;48.176;11.792;2023-01-28T07:17:47;22.07;;;14.30;;
2656;SDS011;1338;48.176;11.792;2023-01-28T07:20:15;24.80;;;15.50;;
2656;SDS011;1338;48.176;11.792;2023-01-28T07:22:44;25.03;;;16.23;;
2656;SDS011;1338;48.176;11.792;2023-01-28T07:25:13;21.10;;;15.03;;
2656;SDS011;1338;48.176;11.792;2023-01-28T07:27:45;21.10;;;14.80;;
2656;SDS011;1338;48.176;11.792;2023-01-28T07:30:15;25.07;;;16.33;;
2656;SDS011;1338;48.176;11.792;2023-01-28T07:32:44;22.67;;;15.80;;
2656;SDS011;1338;48.176;11.792;2023-01-28T07:35:14;21.10;;;14.00;;
2656;SDS011;1338;48.176;11.792;2023-01-28T07:37:49;22.13;;;14.83;;
2656;SDS011;1338;48.176;11.792;2023-01-28T07:40:18;22.43;;;13.20;;
2656;SDS011;1338;48.176;11.792;2023-01-28T07:42:47;22.17;;;14.20;;
2656;SDS011;1338;48.176;11.792;2023-01-28T07:45:21;24.50;;;15.37;;
2656;SDS011;1338;48.176;11.792;2023-01-28T07:47:54;22.50;;;14.87;;
2656;SDS011;1338;48.176;11.792;2023-01-28T07:50:25;22.13;;;12.73;;
2656;SDS011;1338;48.176;11.792;2023-01-28T07:52:54;23.23;;;13.83;;
2656;SDS011;1338;48.176;11.792;2023-01-28T07:55:23;23.77;;;16.07;;
2656;SDS011;1338;48.176;11.792;2023-01-28T07:57:56;21.77;;;14.50;;
2656;SDS011;1338;48.176;11.792;2023-01-28T08:00:25;20.10;;;13.20;;
2656;SDS011;1338;48.176;11.792;2023-01-28T08:02:56;21.37;;;14.40;;
2656;SDS011;1338;48.176;11.792;2023-01-28T08:05:27;22.87;;;14.87;;
2656;SDS011;1338;48.176;11.792;2023-01-28T08:08:04;21.93;;;13.50;;
2656;SDS011;1338;48.176;11.792;2023-01-28T08:10:33;18.30;;;13.47;;
2656;SDS011;1338;48.176;11.792;2023-01-28T08:13:01;18.20;;;13.50;;
2656;SDS011;1338;48.176;11.792;2023-01-28T08:15:30;19.77;;;13.70;;
2656;SDS011;1338;48.176;11.792;2023-01-28T08:18:01;23.50;;;14.37;;
2656;SDS011;1338;48.176;11.792;2023-01-28T08:20:31;22.50;;;14.80;;
2656;SDS011;1338;48.176;11.792;2023-01-28T08:23:03;23.27;;;14.23;;
2656;SDS011;1338;48.176;11.792;2023-01-28T08:25:32;21.77;;;14.40;;
2656;SDS011;1338;48.176;11.792;2023-01-28T08:28:01;24.97;;;14.60;;
2656;SDS011;1338;48.176;11.792;2023-01-28T08:30:31;22.30;;;16.07;;
2656;SDS011;1338;48.176;11.792;2023-01-28T08:32:59;21.50;;;13.43;;
2656;SDS011;1338;48.176;11.792;2023-01-28T08:35:28;19.90;;;13.53;;
2656;SDS011;1338;48.176;11.792;2023-01-28T08:37:59;23.30;;;13.70;;
2656;SDS011;1338;48.176;11.792;2023-01-28T08:40:29;21.30;;;14.70;;
2656;SDS011;1338;48.176;11.792;2023-01-28T08:42:57;18.80;;;12.83;;
2656;SDS011;1338;48.176;11.792;2023-01-28T08:45:26;20.80;;;13.30;;
2656;SDS011;1338;48.176;11.792;2023-01-28T08:47:56;22.30;;;14.80;;
2656;SDS011;1338;48.176;11.792;2023-01-28T08:50:26;18.50;;;13.53;;
2656;SDS011;1338;48.176;11.792;2023-01-28T08:52:59;20.40;;;12.97;;
2656;SDS011;1338;48.176;11.792;2023-01-28T08:55:29;22.33;;;14.00;;
2656;SDS011;1338;48.176;11.792;2023-01-28T08:58:00;21.83;;;14.47;;
2656;SDS011;1338;48.176;11.792;2023-01-28T09:00:29;23.43;;;16.27;;
2656;SDS011;1338;48.176;11.792;2023-01-28T09:02:57;19.30;;;14.23;;
2656;SDS011;1338;48.176;11.792;2023-01-28T09:05:25;23.37;;;14.63;;
2656;SDS011;1338;48.176;11.792;2023-01-28T09:07:55;21.97;;;13.73;;
2656;SDS011;1338;48.176;11.792;2023-01-28T09:10:25;21.43;;;14.40;;
2656;SDS011;1338;48.176;11.792;2023-01-28T09:12:53;21.80;;;16.30;;
2656;SDS011;1338;48.176;11.792;2023-01-28T09:15:21;20.63;;;14.70;;
2656;SDS011;1338;48.176;11.792;2023-01-28T09:17:55;20.57;;;13.40;;
2656;SDS011;1338;48.176;11.792;2023-01-28T09:20:24;20.70;;;14.53;;
2656;SDS011;1338;48.176;11.792;2023-01-28T09:22:53;20.07;;;14.07;;
2656;SDS011;1338;48.176;11.792;2023-01-28T09:25:22;23.37;;;14.80;;
2656;SDS011;1338;48.176;11.792;2023-01-28T09:27:51;19.97;;;13.63;;
2656;SDS011;1338;48.176;11.792;2023-01-28T09:30:19;23.30;;;15.13;;
2656;SDS011;1338;48.176;11.792;2023-01-28T09:32:48;20.30;;;13.87;;
2656;SDS011;1338;48.176;11.792;2023-01-28T09:35:17;21.80;;;13.17;;
2656;SDS011;1338;48.176;11.792;2023-01-28T09:37:46;20.70;;;13.87;;
2656;SDS011;1338;48.176;11.792;2023-01-28T09:40:14;21.60;;;14.20;;
2656;SDS011;1338;48.176;11.792;2023-01-28T09:42:50;18.67;;;13.30;;
2656;SDS011;1338;48.176;11.792;2023-01-28T09:45:27;19.17;;;12.03;;
2656;SDS011;1338;48.176;11.792;2023-01-28T09:48:02;19.43;;;12.77;;
2656;SDS011;1338;48.176;11.792;2023-01-28T09:50:33;22.63;;;15.50;;
2656;SDS011;1338;48.176;11.792;2023-01-28T09:53:04;22.50;;;15.60;;
2656;SDS011;1338;48.176;11.792;2023-01-28T09:55:40;18.37;;;12.57;;
2656;SDS011;1338;48.176;11.792;2023-01-28T09:58:14;20.07;;;14.47;;
2656;SDS011;1338;48.176;11.792;2023-01-28T10:00:47;23.07;;;16.43;;
2656;SDS011;1338;48.176;11.792;2023-01-28T10:06:17;18.77;;;12.97;;
2656;SDS011;1338;48.176;11.792;2023-01-28T10:11:51;16.67;;;12.27;;
2656;SDS011;1338;48.176;11.792;2023-01-28T10:14:33;20.60;;;12.43;;
2656;SDS011;1338;48.176;11.792;2023-01-28T10:17:11;19.63;;;13.80;;
2656;SDS011;1338;48.176;11.792;2023-01-28T10:19:48;19.73;;;14.47;;
2656;SDS011;1338;48.176;11.792;2023-01-28T10:22:21;19.67;;;14.17;;
2656;SDS011;1338;48.176;11.792;2023-01-28T10:24:53;21.90;;;14.40;;
2656;SDS011;1338;48.176;11.792;2023-01-28T10:27:28;20.73;;;14.37;;
2656;SDS011;1338;48.176;11.792;2023-01-28T10:29:59;21.73;;;15.47;;
2656;SDS011;1338;48.176;11.792;2023-01-28T10:32:46;19.30;;;13.40;;
2656;SDS011;1338;48.176;11.792;2023-01-28T10:35:19;20.20;;;13.00;;
2656;SDS011;1338;48.176;11.792;2023-01-28T10:37:48;20.63;;;14.87;;
2656;SDS011;1338;48.176;11.792;2023-01-28T10:40:19;16.87;;;13.20;;
2656;SDS011;1338;48.176;11.792;2023-01-28T10:42:47;17.80;;;12.60;;
2656;SDS011;1338;48.176;11.792;2023-01-28T10:45:18;18.50;;;13.27;;
2656;SDS011;1338;48.176;11.792;2023-01-28T10:47:49;15.87;;;11.40;;
2656;SDS011;1338;48.176;11.792;2023-01-28T10:50:21;17.77;;;12.67;;
2656;SDS011;1338;48.176;11.792;2023-01-28T10:52:55;15.47;;;12.33;;
2656;SDS011;1338;48.176;11.792;2023-01-28T10:55:25;16.43;;;12.53;;
2656;SDS011;1338;48.176;11.792;2023-01-28T10:57:55;18.67;;;12.57;;
2656;SDS011;1338;48.176;11.792;2023-01-28T11:00:26;17.43;;;13.10;;
2656;SDS011;1338;48.176;11.792;2023-01-28T11:02:58;19.80;;;13.90;;
2656;SDS011;1338;48.176;11.792;2023-01-28T11:05:27;20.40;;;14.80;;
2656;SDS011;1338;48.176;11.792;2023-01-28T11:08:03;22.10;;;13.63;;
2656;SDS011;1338;48.176;11.792;2023-01-28T11:10:39;18.47;;;14.20;;
2656;SDS011;1338;48.176;11.792;2023-01-28T11:13:14;20.93;;;13.47;;
2656;SDS011;1338;48.176;11.792;2023-01-28T11:15:49;19.53;;;14.80;;
2656;SDS011;1338;48.176;11.792;2023-01-28T11:18:20;18.10;;;14.30;;
2656;SDS011;1338;48.176;11.792;2023-01-28T11:20:52;22.47;;;15.13;;
2656;SDS011;1338;48.176;11.792;2023-01-28T11:23:24;18.37;;;13.80;;
2656;SDS011;1338;48.176;11.792;2023-01-28T11:25:58;17.33;;;13.83;;
2656;SDS011;1338;48.176;11.792;2023-01-28T11:28:29;19.50;;;14.90;;
2656;SDS011;1338;48.176;11.792;2023-01-28T11:31:00;19.50;;;14.10;;
2656;SDS011;1338;48.176;11.792;2023-01-28T11:33:31;20.47;;;13.97;;
2656;SDS011;1338;48.176;11.792;2023-01-28T11:36:04;19.83;;;14.40;;
2656;SDS011;1338;48.176;11.792;2023-01-28T11:38:34;20.43;;;14.70;;
2656;SDS011;1338;48.176;11.792;2023-01-28T11:41:03;20.40;;;14.70;;
2656;SDS011;1338;48.176;11.792;2023-01-28T11:43:31;18.83;;;14.27;;
2656;SDS011;1338;48.176;11.792;2023-01-28T11:46:05;17.70;;;13.30;;
2656;SDS011;1338;48.176;11.792;2023-01-28T11:48:45;20.93;;;14.27;;
2656;SDS011;1338;48.176;11.792;2023-01-28T11:51:29;19.13;;;14.40;;
2656;SDS011;1338;48.176;11.792;2023-01-28T11:54:08;17.50;;;13.00;;
2656;SDS011;1338;48.176;11.792;2023-01-28T11:56:52;19.90;;;13.80;;
2656;SDS011;1338;48.176;11.792;2023-01-28T11:59:37;18.37;;;12.60;;
2656;SDS011;1338;48.176;11.792;2023-01-28T12:02:20;19.37;;;14.33;;
2656;SDS011;1338;48.176;11.792;2023-01-28T12:05:07;20.17;;;16.17;;
2656;SDS011;1338;48.176;11.792;2023-01-28T12:07:50;19.33;;;14.87;;
2656;SDS011;1338;48.176;11.792;2023-01-28T12:10:25;18.70;;;13.13;;
2656;SDS011;1338;48.176;11.792;2023-01-28T12:13:08;18.37;;;13.17;;
2656;SDS011;1338;48.176;11.792;2023-01-28T12:16:07;16.60;;;11.63;;
2656;SDS011;1338;48.176;11.792;2023-01-28T12:21:57;17.23;;;11.10;;
2656;SDS011;1338;48.176;11.792;2023-01-28T12:24:49;17.40;;;12.40;;
2656;SDS011;1338;48.176;11.792;2023-01-28T12:27:33;16.10;;;12.17;;
2656;SDS011;1338;48.176;11.792;2023-01-28T12:30:15;12.93;;;10.73;;
2656;SDS011;1338;48.176;11.792;2023-01-28T12:33:01;16.00;;;11.30;;
2656;SDS011;1338;48.176;11.792;2023-01-28T12:35:55;14.87;;;11.70;;
2656;SDS011;1338;48.176;11.792;2023-01-28T12:38:35;13.63;;;10.23;;
2656;SDS011;1338;48.176;11.792;2023-01-28T12:41:10;14.80;;;11.33;;
2656;SDS011;1338;48.176;11.792;2023-01-28T12:43:48;14.77;;;11.43;;
2656;SDS011;1338;48.176;11.792;2023-01-28T12:46:24;16.23;;;12.07;;
2656;SDS011;1338;48.176;11.792;2023-01-28T12:49:00;17.00;;;12.67;;
2656;SDS011;1338;48.176;11.792;2023-01-28T12:51:33;14.63;;;11.53;;
2656;SDS011;1338;48.176;11.792;2023-01-28T12:54:10;15.77;;;12.27;;
2656;SDS011;1338;48.176;11.792;2023-01-28T12:56:44;16.70;;;12.10;;
2656;SDS011;1338;48.176;11.792;2023-01-28T12:59:18;17.27;;;13.90;;
2656;SDS011;1338;48.176;11.792;2023-01-28T13:01:54;18.23;;;11.50;;
2656;SDS011;1338;48.176;11.792;2023-01-28T13:04:31;16.93;;;12.47;;
2656;SDS011;1338;48.176;11.792;2023-01-28T13:07:07;16.70;;;13.20;;
2656;SDS011;1338;48.176;11.792;2023-01-28T13:09:42;15.10;;;11.93;;
2656;SDS011;1338;48.176;11.792;2023-01-28T13:12:16;18.70;;;11.30;;
2656;SDS011;1338;48.176;11.792;2023-01-28T13:14:45;16.93;;;11.70;;
2656;SDS011;1338;48.176;11.792;2023-01-28T13:17:24;18.53;;;13.17;;
2656;SDS011;1338;48.176;11.792;2023-01-28T13:19:53;17.47;;;12.67;;
2656;SDS011;1338;48.176;11.792;2023-01-28T13:22:27;13.37;;;10.37;;
2656;SDS011;1338;48.176;11.792;2023-01-28T13:25:11;13.40;;;10.47;;
2656;SDS011;1338;48.176;11.792;2023-01-28T13:27:53;15.20;;;10.10;;
2656;SDS011;1338;48.176;11.792;2023-01-28T13:30:24;13.13;;;10.43;;
2656;SDS011;1338;48.176;11.792;2023-01-28T13:32:54;12.57;;;9.17;;
2656;SDS011;1338;48.176;11.792;2023-01-28T13:35:27;14.20;;;10.10;;
2656;SDS011;1338;48.176;11.792;2023-01-28T13:38:01;12.00;;;9.10;;
2656;SDS011;1338;48.176;11.792;2023-01-28T13:40:35;13.47;;;9.33;;
2656;SDS011;1338;48.176;11.792;2023-01-28T13:45:56;12.50;;;9.77;;
2656;SDS011;1338;48.176;11.792;2023-01-28T13:48:28;11.80;;;9.20;;
2656;SDS011;1338;48.176;11.792;2023-01-28T13:50:59;13.07;;;9.87;;
2656;SDS011;1338;48.176;11.792;2023-01-28T13:53:36;14.33;;;9.00;;
2656;SDS011;1338;48.176;11.792;2023-01-28T13:56:16;12.40;;;9.43;;
2656;SDS011;1338;48.176;11.792;2023-01-28T14:01:56;11.60;;;9.80;;
2656;SDS011;1338;48.176;11.792;2023-01-28T14:11:01;11.70;;;9.00;;
2656;SDS011;1338;48.176;11.792;2023-01-28T14:13:44;12.93;;;9.80;;
2656;SDS011;1338;48.176;11.792;2023-01-28T14:16:25;15.83;;;10.90;;
2656;SDS011;1338;48.176;11.792;2023-01-28T14:19:01;14.37;;;9.37;;
2656;SDS011;1338;48.176;11.792;2023-01-28T14:21:31;16.90;;;11.33;;
2656;SDS011;1338;48.176;11.792;2023-01-28T14:24:01;17.53;;;10.80;;
2656;SDS011;1338;48.176;11.792;2023-01-28T14:26:37;13.47;;;9.67;;
2656;SDS011;1338;48.176;11.792;2023-01-28T14:29:14;15.50;;;12.00;;
2656;SDS011;1338;48.176;11.792;2023-01-28T14:31:48;16.20;;;12.70;;
2656;SDS011;1338;48.176;11.792;2023-01-28T14:34:20;17.90;;;12.77;;
2656;SDS011;1338;48.176;11.792;2023-01-28T14:36:52;18.60;;;12.40;;
2656;SDS011;1338;48.176;11.792;2023-01-28T14:39:25;15.63;;;10.77;;
2656;SDS011;1338;48.176;11.792;2023-01-28T14:41:58;14.47;;;10.00;;
2656;SDS011;1338;48.176;11.792;2023-01-28T14:44:30;13.60;;;9.97;;
2656;SDS011;1338;48.176;11.792;2023-01-28T14:47:07;13.27;;;9.70;;
2656;SDS011;1338;48.176;11.792;2023-01-28T14:49:59;12.83;;;10.20;;
2656;SDS011;1338;48.176;11.792;2023-01-28T14:52:49;13.53;;;10.13;;
2656;SDS011;1338;48.176;11.792;2023-01-28T14:55:29;12.60;;;9.60;;
2656;SDS011;1338;48.176;11.792;2023-01-28T14:58:04;12.07;;;8.43;;
2656;SDS011;1338;48.176;11.792;2023-01-28T15:00:38;13.67;;;9.60;;
2656;SDS011;1338;48.176;11.792;2023-01-28T15:03:13;9.43;;;8.43;;
2656;SDS011;1338;48.176;11.792;2023-01-28T15:06:00;11.63;;;8.93;;
2656;SDS011;1338;48.176;11.792;2023-01-28T15:08:30;13.47;;;9.13;;
2656;SDS011;1338;48.176;11.792;2023-01-28T15:10:59;13.70;;;8.90;;
2656;SDS011;1338;48.176;11.792;2023-01-28T15:13:31;10.93;;;8.07;;
2656;SDS011;1338;48.176;11.792;2023-01-28T15:16:04;11.80;;;8.93;;
2656;SDS011;1338;48.176;11.792;2023-01-28T15:18:34;11.00;;;8.60;;
2656;SDS011;1338;48.176;11.792;2023-01-28T15:21:06;17.53;;;10.53;;
2656;SDS011;1338;48.176;11.792;2023-01-28T15:23:36;10.70;;;8.07;;
2656;SDS011;1338;48.176;11.792;2023-01-28T15:26:06;11.83;;;9.43;;
2656;SDS011;1338;48.176;11.792;2023-01-28T15:28:41;13.23;;;9.00;;
2656;SDS011;1338;48.176;11.792;2023-01-28T15:31:17;12.80;;;10.10;;
2656;SDS011;1338;48.176;11.792;2023-01-28T15:33:54;15.10;;;10.43;;
2656;SDS011;1338;48.176;11.792;2023-01-28T15:36:23;12.43;;;8.77;;
2656;SDS011;1338;48.176;11.792;2023-01-28T15:38:52;12.97;;;10.47;;
2656;SDS011;1338;48.176;11.792;2023-01-28T15:41:21;10.47;;;9.10;;